sensor_id;sensor_type;location;lat;lon;timestamp;pressure;altitude;pressure_sealevel;temperature;humidity
82668;BME280;72691;51.374;-0.176;2023-10-19T00:01:10;98328.71;;;12.80;70.74
82668;BME280;72691;51.374;-0.176;2023-10-19T00:03:36;98324.95;;;12.20;70.12
82668;BME280;72691;51.374;-0.176;2023-10-19T00:06:01;98336.39;;;11.66;71.21
82668;BME280;72691;51.374;-0.176;2023-10-19T00:08:27;98336.85;;;12.59;70.59
82668;BME280;72691;51.374;-0.176;2023-10-19T00:10:54;98341.43;;;12.29;70.16
82668;BME280;72691;51.374;-0.176;2023-10-19T00:13:17;98348.50;;;12.27;69.55
82668;BME280;72691;51.374;-0.176;2023-10-19T00:15:43;98358.52;;;12.37;69.46
82668;BME280;72691;51.374;-0.176;2023-10-19T00:18:08;98346.03;;;12.18;69.83
82668;BME280;72691;51.374;-0.176;2023-10-19T00:20:34;98365.17;;;11.70;70.59
82668;BME280;72691;51.374;-0.176;2023-10-19T00:22:59;98367.21;;;12.23;69.53
82668;BME280;72691;51.374;-0.176;2023-10-19T00:25:24;98354.76;;;12.55;69.12
82668;BME280;72691;51.374;-0.176;2023-10-19T00:27:50;98363.01;;;11.88;70.66
82668;BME280;72691;51.374;-0.176;2023-10-19T00:30:15;98354.88;;;12.26;70.15
82668;BME280;72691;51.374;-0.176;2023-10-19T00:32:40;98355.16;;;12.75;68.57
82668;BME280;72691;51.374;-0.176;2023-10-19T00:35:06;98355.63;;;12.72;67.91
82668;BME280;72691;51.374;-0.176;2023-10-19T00:37:31;98345.41;;;13.46;66.46
82668;BME280;72691;51.374;-0.176;2023-10-19T00:39:57;98344.19;;;12.97;67.61
82668;BME280;72691;51.374;-0.176;2023-10-19T00:42:23;98337.31;;;12.85;67.32
82668;BME280;72691;51.374;-0.176;2023-10-19T00:44:48;98344.18;;;13.07;67.09
82668;BME280;72691;51.374;-0.176;2023-10-19T00:47:13;98342.27;;;13.17;67.19
82668;BME280;72691;51.374;-0.176;2023-10-19T00:49:39;98345.15;;;13.30;67.60
82668;BME280;72691;51.374;-0.176;2023-10-19T00:52:06;98351.35;;;12.72;68.60
82668;BME280;72691;51.374;-0.176;2023-10-19T00:54:32;98343.90;;;12.81;69.01
82668;BME280;72691;51.374;-0.176;2023-10-19T00:56:55;98346.34;;;13.03;68.25
82668;BME280;72691;51.374;-0.176;2023-10-19T00:59:20;98342.80;;;13.56;67.58
82668;BME280;72691;51.374;-0.176;2023-10-19T01:01:45;98349.17;;;13.21;67.88
82668;BME280;72691;51.374;-0.176;2023-10-19T01:04:11;98350.31;;;13.33;67.69
82668;BME280;72691;51.374;-0.176;2023-10-19T01:06:36;98348.46;;;13.27;67.84
82668;BME280;72691;51.374;-0.176;2023-10-19T01:09:01;98359.50;;;12.50;71.85
82668;BME280;72691;51.374;-0.176;2023-10-19T01:11:27;98353.19;;;12.43;71.30
82668;BME280;72691;51.374;-0.176;2023-10-19T01:13:53;98348.21;;;12.81;70.29
82668;BME280;72691;51.374;-0.176;2023-10-19T01:16:18;98350.57;;;12.77;70.72
82668;BME280;72691;51.374;-0.176;2023-10-19T01:18:43;98345.93;;;12.96;69.74
82668;BME280;72691;51.374;-0.176;2023-10-19T01:21:08;98347.35;;;13.33;69.64
82668;BME280;72691;51.374;-0.176;2023-10-19T01:23:34;98344.12;;;13.24;70.00
82668;BME280;72691;51.374;-0.176;2023-10-19T01:26:00;98338.03;;;13.05;70.55
82668;BME280;72691;51.374;-0.176;2023-10-19T01:28:26;98340.13;;;13.40;69.24
82668;BME280;72691;51.374;-0.176;2023-10-19T01:30:50;98338.99;;;13.09;70.00
82668;BME280;72691;51.374;-0.176;2023-10-19T01:33:15;98342.76;;;12.80;71.57
82668;BME280;72691;51.374;-0.176;2023-10-19T01:35:41;98341.21;;;13.14;71.25
82668;BME280;72691;51.374;-0.176;2023-10-19T01:38:06;98340.16;;;13.09;71.43
82668;BME280;72691;51.374;-0.176;2023-10-19T01:40:31;98340.21;;;12.59;74.19
82668;BME280;72691;51.374;-0.176;2023-10-19T01:42:57;98339.12;;;13.15;73.01
82668;BME280;72691;51.374;-0.176;2023-10-19T01:45:22;98340.43;;;12.71;74.38
82668;BME280;72691;51.374;-0.176;2023-10-19T01:47:48;98337.44;;;12.76;73.08
82668;BME280;72691;51.374;-0.176;2023-10-19T01:50:13;98330.88;;;13.19;73.42
82668;BME280;72691;51.374;-0.176;2023-10-19T01:52:38;98326.13;;;13.60;71.12
82668;BME280;72691;51.374;-0.176;2023-10-19T01:55:05;98323.30;;;13.63;70.74
82668;BME280;72691;51.374;-0.176;2023-10-19T01:57:29;98326.16;;;13.11;71.60
82668;BME280;72691;51.374;-0.176;2023-10-19T01:59:54;98324.29;;;13.91;69.72
82668;BME280;72691;51.374;-0.176;2023-10-19T02:02:20;98324.60;;;13.74;70.77
82668;BME280;72691;51.374;-0.176;2023-10-19T02:04:45;98321.74;;;13.24;71.63
82668;BME280;72691;51.374;-0.176;2023-10-19T02:07:10;98318.57;;;13.58;71.40
82668;BME280;72691;51.374;-0.176;2023-10-19T02:09:36;98320.91;;;13.62;71.56
82668;BME280;72691;51.374;-0.176;2023-10-19T02:12:01;98314.19;;;13.69;70.10
82668;BME280;72691;51.374;-0.176;2023-10-19T02:14:27;98315.69;;;13.81;70.08
82668;BME280;72691;51.374;-0.176;2023-10-19T02:16:54;98316.69;;;13.79;70.61
82668;BME280;72691;51.374;-0.176;2023-10-19T02:19:18;98309.35;;;13.34;72.12
82668;BME280;72691;51.374;-0.176;2023-10-19T02:21:43;98304.89;;;13.48;72.39
82668;BME280;72691;51.374;-0.176;2023-10-19T02:24:09;98295.30;;;13.67;72.83
82668;BME280;72691;51.374;-0.176;2023-10-19T02:26:34;98289.87;;;13.84;72.00
82668;BME280;72691;51.374;-0.176;2023-10-19T02:28:59;98283.76;;;13.82;71.91
82668;BME280;72691;51.374;-0.176;2023-10-19T02:31:24;98280.55;;;13.82;71.19
82668;BME280;72691;51.374;-0.176;2023-10-19T02:33:50;98289.84;;;13.91;72.26
82668;BME280;72691;51.374;-0.176;2023-10-19T02:36:15;98283.52;;;13.72;71.83
82668;BME280;72691;51.374;-0.176;2023-10-19T02:38:41;98275.98;;;13.60;73.03
82668;BME280;72691;51.374;-0.176;2023-10-19T02:41:06;98273.59;;;13.43;73.46
82668;BME280;72691;51.374;-0.176;2023-10-19T02:43:31;98272.17;;;14.18;71.67
82668;BME280;72691;51.374;-0.176;2023-10-19T02:45:57;98275.56;;;14.21;71.63
82668;BME280;72691;51.374;-0.176;2023-10-19T02:48:22;98268.93;;;13.43;74.40
82668;BME280;72691;51.374;-0.176;2023-10-19T02:50:47;98269.08;;;13.62;73.72
82668;BME280;72691;51.374;-0.176;2023-10-19T02:53:13;98257.28;;;13.84;72.20
82668;BME280;72691;51.374;-0.176;2023-10-19T02:55:38;98260.54;;;14.43;70.71
82668;BME280;72691;51.374;-0.176;2023-10-19T02:58:04;98261.13;;;14.67;69.04
82668;BME280;72691;51.374;-0.176;2023-10-19T03:00:29;98249.98;;;14.56;69.74
82668;BME280;72691;51.374;-0.176;2023-10-19T03:02:54;98253.68;;;14.19;71.20
82668;BME280;72691;51.374;-0.176;2023-10-19T03:05:20;98251.33;;;14.10;72.42
82668;BME280;72691;51.374;-0.176;2023-10-19T03:07:45;98251.69;;;14.40;70.41
82668;BME280;72691;51.374;-0.176;2023-10-19T03:10:11;98249.10;;;14.86;69.61
82668;BME280;72691;51.374;-0.176;2023-10-19T03:12:36;98249.83;;;14.86;68.43
82668;BME280;72691;51.374;-0.176;2023-10-19T03:15:02;98252.25;;;14.52;69.22
82668;BME280;72691;51.374;-0.176;2023-10-19T03:17:27;98250.77;;;14.83;68.50
82668;BME280;72691;51.374;-0.176;2023-10-19T03:19:52;98256.32;;;14.21;71.71
82668;BME280;72691;51.374;-0.176;2023-10-19T03:22:18;98258.79;;;14.30;71.75
82668;BME280;72691;51.374;-0.176;2023-10-19T03:24:43;98256.93;;;14.65;70.21
82668;BME280;72691;51.374;-0.176;2023-10-19T03:27:10;98259.58;;;15.00;68.26
82668;BME280;72691;51.374;-0.176;2023-10-19T03:29:34;98257.14;;;15.05;68.42
82668;BME280;72691;51.374;-0.176;2023-10-19T03:31:59;98258.25;;;14.03;71.38
82668;BME280;72691;51.374;-0.176;2023-10-19T03:34:24;98257.48;;;14.18;72.25
82668;BME280;72691;51.374;-0.176;2023-10-19T03:36:50;98254.49;;;14.58;70.14
82668;BME280;72691;51.374;-0.176;2023-10-19T03:39:15;98249.38;;;14.81;68.71
82668;BME280;72691;51.374;-0.176;2023-10-19T03:41:41;98249.03;;;14.39;71.05
82668;BME280;72691;51.374;-0.176;2023-10-19T03:44:09;98239.17;;;13.74;72.51
82668;BME280;72691;51.374;-0.176;2023-10-19T03:46:31;98240.37;;;14.19;72.25
82668;BME280;72691;51.374;-0.176;2023-10-19T03:48:57;98240.43;;;13.92;72.27
82668;BME280;72691;51.374;-0.176;2023-10-19T03:51:22;98242.81;;;14.18;71.56
82668;BME280;72691;51.374;-0.176;2023-10-19T03:53:48;98234.94;;;15.05;68.64
82668;BME280;72691;51.374;-0.176;2023-10-19T03:56:13;98231.41;;;13.93;70.17
82668;BME280;72691;51.374;-0.176;2023-10-19T03:58:38;98224.89;;;14.89;69.05
82668;BME280;72691;51.374;-0.176;2023-10-19T04:01:03;98220.82;;;14.82;68.12
82668;BME280;72691;51.374;-0.176;2023-10-19T04:03:29;98211.79;;;15.24;66.79
82668;BME280;72691;51.374;-0.176;2023-10-19T04:05:54;98220.14;;;15.04;68.27
82668;BME280;72691;51.374;-0.176;2023-10-19T04:08:19;98223.30;;;14.98;68.62
82668;BME280;72691;51.374;-0.176;2023-10-19T04:10:45;98215.57;;;14.35;70.73
82668;BME280;72691;51.374;-0.176;2023-10-19T04:13:11;98217.45;;;14.71;69.34
82668;BME280;72691;51.374;-0.176;2023-10-19T04:15:35;98213.20;;;14.55;70.04
82668;BME280;72691;51.374;-0.176;2023-10-19T04:18:01;98212.55;;;15.12;69.28
82668;BME280;72691;51.374;-0.176;2023-10-19T04:20:26;98206.39;;;15.02;69.02
82668;BME280;72691;51.374;-0.176;2023-10-19T04:22:51;98205.23;;;15.06;68.92
82668;BME280;72691;51.374;-0.176;2023-10-19T04:25:17;98200.88;;;14.41;71.81
82668;BME280;72691;51.374;-0.176;2023-10-19T04:27:42;98204.58;;;14.20;72.49
82668;BME280;72691;51.374;-0.176;2023-10-19T04:30:08;98208.71;;;13.85;73.86
82668;BME280;72691;51.374;-0.176;2023-10-19T04:32:32;98206.56;;;14.12;72.79
82668;BME280;72691;51.374;-0.176;2023-10-19T04:34:58;98203.33;;;14.43;71.69
82668;BME280;72691;51.374;-0.176;2023-10-19T04:37:23;98201.01;;;13.86;74.07
82668;BME280;72691;51.374;-0.176;2023-10-19T04:39:49;98193.11;;;13.93;74.41
82668;BME280;72691;51.374;-0.176;2023-10-19T04:42:15;98194.07;;;13.70;74.43
82668;BME280;72691;51.374;-0.176;2023-10-19T04:44:41;98192.94;;;13.59;75.01
82668;BME280;72691;51.374;-0.176;2023-10-19T04:47:05;98195.92;;;13.63;75.35
82668;BME280;72691;51.374;-0.176;2023-10-19T04:49:30;98193.19;;;13.96;74.19
82668;BME280;72691;51.374;-0.176;2023-10-19T04:51:55;98193.61;;;13.86;74.16
82668;BME280;72691;51.374;-0.176;2023-10-19T04:54:21;98191.88;;;14.33;73.63
82668;BME280;72691;51.374;-0.176;2023-10-19T04:56:47;98191.05;;;13.91;73.98
82668;BME280;72691;51.374;-0.176;2023-10-19T04:59:12;98193.49;;;14.55;71.30
82668;BME280;72691;51.374;-0.176;2023-10-19T05:01:37;98185.19;;;14.10;72.43
82668;BME280;72691;51.374;-0.176;2023-10-19T05:04:02;98183.27;;;13.91;73.79
82668;BME280;72691;51.374;-0.176;2023-10-19T05:06:28;98180.91;;;13.62;74.72
82668;BME280;72691;51.374;-0.176;2023-10-19T05:08:53;98171.26;;;14.55;70.75
82668;BME280;72691;51.374;-0.176;2023-10-19T05:11:18;98174.24;;;13.79;73.36
82668;BME280;72691;51.374;-0.176;2023-10-19T05:13:44;98170.86;;;14.46;71.71
82668;BME280;72691;51.374;-0.176;2023-10-19T05:16:09;98160.66;;;14.06;71.83
82668;BME280;72691;51.374;-0.176;2023-10-19T05:18:34;98170.63;;;14.19;72.93
82668;BME280;72691;51.374;-0.176;2023-10-19T05:21:00;98161.93;;;14.78;71.01
82668;BME280;72691;51.374;-0.176;2023-10-19T05:23:26;98173.29;;;14.23;72.70
82668;BME280;72691;51.374;-0.176;2023-10-19T05:25:50;98171.97;;;14.29;71.73
82668;BME280;72691;51.374;-0.176;2023-10-19T05:28:15;98174.83;;;14.04;73.50
82668;BME280;72691;51.374;-0.176;2023-10-19T05:30:41;98173.08;;;13.70;73.57
82668;BME280;72691;51.374;-0.176;2023-10-19T05:33:06;98175.56;;;14.07;73.49
82668;BME280;72691;51.374;-0.176;2023-10-19T05:35:32;98161.36;;;14.23;73.49
82668;BME280;72691;51.374;-0.176;2023-10-19T05:37:57;98178.93;;;14.16;73.08
82668;BME280;72691;51.374;-0.176;2023-10-19T05:40:23;98179.23;;;13.56;73.87
82668;BME280;72691;51.374;-0.176;2023-10-19T05:42:48;98172.29;;;13.90;72.82
82668;BME280;72691;51.374;-0.176;2023-10-19T05:45:14;98176.10;;;14.40;70.84
82668;BME280;72691;51.374;-0.176;2023-10-19T05:47:39;98169.54;;;14.32;70.92
82668;BME280;72691;51.374;-0.176;2023-10-19T05:50:04;98174.01;;;13.80;72.50
82668;BME280;72691;51.374;-0.176;2023-10-19T05:52:29;98165.80;;;14.04;72.36
82668;BME280;72691;51.374;-0.176;2023-10-19T05:54:55;98169.32;;;14.16;72.28
82668;BME280;72691;51.374;-0.176;2023-10-19T05:57:19;98172.45;;;14.70;70.18
82668;BME280;72691;51.374;-0.176;2023-10-19T05:59:45;98171.96;;;14.34;70.99
82668;BME280;72691;51.374;-0.176;2023-10-19T06:02:11;98165.97;;;14.49;70.08
82668;BME280;72691;51.374;-0.176;2023-10-19T06:04:36;98164.82;;;14.24;72.38
82668;BME280;72691;51.374;-0.176;2023-10-19T06:07:01;98163.92;;;14.26;70.96
82668;BME280;72691;51.374;-0.176;2023-10-19T06:09:27;98175.23;;;13.76;72.60
82668;BME280;72691;51.374;-0.176;2023-10-19T06:11:52;98164.42;;;13.63;72.96
82668;BME280;72691;51.374;-0.176;2023-10-19T06:14:17;98153.90;;;14.10;72.03
82668;BME280;72691;51.374;-0.176;2023-10-19T06:16:42;98158.08;;;14.43;71.80
82668;BME280;72691;51.374;-0.176;2023-10-19T06:19:08;98162.26;;;13.86;71.92
82668;BME280;72691;51.374;-0.176;2023-10-19T06:21:33;98170.06;;;14.23;70.57
82668;BME280;72691;51.374;-0.176;2023-10-19T06:23:58;98165.39;;;14.13;71.73
82668;BME280;72691;51.374;-0.176;2023-10-19T06:26:23;98173.84;;;14.32;70.97
82668;BME280;72691;51.374;-0.176;2023-10-19T06:28:48;98179.01;;;14.37;70.99
82668;BME280;72691;51.374;-0.176;2023-10-19T06:31:14;98164.36;;;13.81;73.12
82668;BME280;72691;51.374;-0.176;2023-10-19T06:33:39;98176.90;;;14.23;71.96
82668;BME280;72691;51.374;-0.176;2023-10-19T06:36:05;98177.19;;;13.80;71.50
82668;BME280;72691;51.374;-0.176;2023-10-19T06:38:30;98175.84;;;14.51;70.16
82668;BME280;72691;51.374;-0.176;2023-10-19T06:40:55;98178.10;;;14.64;69.27
82668;BME280;72691;51.374;-0.176;2023-10-19T06:43:21;98170.89;;;14.85;68.01
82668;BME280;72691;51.374;-0.176;2023-10-19T06:45:46;98181.05;;;14.75;68.39
82668;BME280;72691;51.374;-0.176;2023-10-19T06:48:11;98179.28;;;14.54;69.57
82668;BME280;72691;51.374;-0.176;2023-10-19T06:50:38;98171.58;;;14.84;68.37
82668;BME280;72691;51.374;-0.176;2023-10-19T06:53:02;98175.07;;;14.63;69.28
82668;BME280;72691;51.374;-0.176;2023-10-19T06:55:28;98172.37;;;15.16;68.63
82668;BME280;72691;51.374;-0.176;2023-10-19T06:57:54;98173.23;;;14.54;69.25
82668;BME280;72691;51.374;-0.176;2023-10-19T07:00:20;98171.14;;;14.60;69.78
82668;BME280;72691;51.374;-0.176;2023-10-19T07:02:44;98169.54;;;14.61;69.85
82668;BME280;72691;51.374;-0.176;2023-10-19T07:05:09;98171.38;;;14.77;68.71
82668;BME280;72691;51.374;-0.176;2023-10-19T07:07:34;98161.23;;;14.27;70.42
82668;BME280;72691;51.374;-0.176;2023-10-19T07:10:00;98167.13;;;14.73;69.61
82668;BME280;72691;51.374;-0.176;2023-10-19T07:12:25;98154.87;;;14.74;69.93
82668;BME280;72691;51.374;-0.176;2023-10-19T07:14:50;98164.21;;;14.70;69.44
82668;BME280;72691;51.374;-0.176;2023-10-19T07:17:16;98159.26;;;14.66;69.83
82668;BME280;72691;51.374;-0.176;2023-10-19T07:19:42;98167.78;;;14.50;70.61
82668;BME280;72691;51.374;-0.176;2023-10-19T07:22:07;98173.35;;;14.01;73.39
82668;BME280;72691;51.374;-0.176;2023-10-19T07:24:32;98173.30;;;13.80;74.87
82668;BME280;72691;51.374;-0.176;2023-10-19T07:26:57;98172.59;;;14.49;72.44
82668;BME280;72691;51.374;-0.176;2023-10-19T07:29:23;98170.91;;;14.10;73.12
82668;BME280;72691;51.374;-0.176;2023-10-19T07:31:47;98171.17;;;14.14;72.62
82668;BME280;72691;51.374;-0.176;2023-10-19T07:34:13;98170.26;;;14.05;72.48
82668;BME280;72691;51.374;-0.176;2023-10-19T07:36:38;98166.80;;;14.45;71.66
82668;BME280;72691;51.374;-0.176;2023-10-19T07:39:03;98169.38;;;13.86;73.73
82668;BME280;72691;51.374;-0.176;2023-10-19T07:41:28;98165.95;;;14.15;72.71
82668;BME280;72691;51.374;-0.176;2023-10-19T07:43:54;98167.63;;;14.39;72.39
82668;BME280;72691;51.374;-0.176;2023-10-19T07:46:19;98165.50;;;14.12;72.95
82668;BME280;72691;51.374;-0.176;2023-10-19T07:48:44;98168.92;;;13.99;72.62
82668;BME280;72691;51.374;-0.176;2023-10-19T07:51:10;98171.26;;;14.02;72.80
82668;BME280;72691;51.374;-0.176;2023-10-19T07:53:35;98167.61;;;14.23;72.95
82668;BME280;72691;51.374;-0.176;2023-10-19T07:56:01;98163.84;;;14.18;73.40
82668;BME280;72691;51.374;-0.176;2023-10-19T07:58:26;98169.43;;;14.48;73.02
82668;BME280;72691;51.374;-0.176;2023-10-19T08:00:51;98166.06;;;14.41;72.50
82668;BME280;72691;51.374;-0.176;2023-10-19T08:03:17;98170.42;;;14.53;71.84
82668;BME280;72691;51.374;-0.176;2023-10-19T08:05:42;98163.36;;;14.05;72.92
82668;BME280;72691;51.374;-0.176;2023-10-19T08:08:07;98168.37;;;14.23;72.05
82668;BME280;72691;51.374;-0.176;2023-10-19T08:10:33;98168.20;;;14.92;70.62
82668;BME280;72691;51.374;-0.176;2023-10-19T08:12:58;98164.20;;;14.85;69.13
82668;BME280;72691;51.374;-0.176;2023-10-19T08:15:23;98164.03;;;14.95;69.59
82668;BME280;72691;51.374;-0.176;2023-10-19T08:17:50;98159.01;;;14.39;70.32
82668;BME280;72691;51.374;-0.176;2023-10-19T08:20:15;98156.57;;;14.20;71.26
82668;BME280;72691;51.374;-0.176;2023-10-19T08:22:39;98156.20;;;14.37;71.21
82668;BME280;72691;51.374;-0.176;2023-10-19T08:25:05;98162.48;;;14.72;70.02
82668;BME280;72691;51.374;-0.176;2023-10-19T08:27:30;98158.30;;;14.39;71.08
82668;BME280;72691;51.374;-0.176;2023-10-19T08:29:55;98158.85;;;14.45;69.95
82668;BME280;72691;51.374;-0.176;2023-10-19T08:32:20;98154.45;;;15.72;66.85
82668;BME280;72691;51.374;-0.176;2023-10-19T08:34:46;98154.42;;;15.08;66.84
82668;BME280;72691;51.374;-0.176;2023-10-19T08:37:11;98154.50;;;15.67;65.76
82668;BME280;72691;51.374;-0.176;2023-10-19T08:39:36;98159.03;;;15.39;67.04
82668;BME280;72691;51.374;-0.176;2023-10-19T08:42:02;98159.00;;;15.60;65.91
82668;BME280;72691;51.374;-0.176;2023-10-19T08:44:27;98159.35;;;15.04;67.35
82668;BME280;72691;51.374;-0.176;2023-10-19T08:46:52;98155.44;;;15.46;67.32
82668;BME280;72691;51.374;-0.176;2023-10-19T08:49:18;98154.56;;;15.81;66.65
82668;BME280;72691;51.374;-0.176;2023-10-19T08:51:44;98158.25;;;15.16;68.15
82668;BME280;72691;51.374;-0.176;2023-10-19T08:54:10;98152.82;;;15.07;67.46
82668;BME280;72691;51.374;-0.176;2023-10-19T08:56:34;98152.55;;;15.33;67.77
82668;BME280;72691;51.374;-0.176;2023-10-19T08:59:00;98156.76;;;15.35;67.22
82668;BME280;72691;51.374;-0.176;2023-10-19T09:01:25;98161.90;;;15.26;67.85
82668;BME280;72691;51.374;-0.176;2023-10-19T09:03:50;98163.47;;;15.90;67.33
82668;BME280;72691;51.374;-0.176;2023-10-19T09:06:15;98160.63;;;15.72;67.06
82668;BME280;72691;51.374;-0.176;2023-10-19T09:08:41;98160.61;;;15.36;68.93
82668;BME280;72691;51.374;-0.176;2023-10-19T09:11:07;98159.20;;;16.14;67.65
82668;BME280;72691;51.374;-0.176;2023-10-19T09:13:43;98156.20;;;16.35;66.08
82668;BME280;72691;51.374;-0.176;2023-10-19T09:16:04;98158.26;;;16.74;64.54
82668;BME280;72691;51.374;-0.176;2023-10-19T09:18:23;98161.38;;;15.93;66.88
82668;BME280;72691;51.374;-0.176;2023-10-19T09:20:47;98157.75;;;15.20;69.61
82668;BME280;72691;51.374;-0.176;2023-10-19T09:23:12;98163.12;;;14.93;71.16
82668;BME280;72691;51.374;-0.176;2023-10-19T09:25:37;98160.95;;;15.13;69.91
82668;BME280;72691;51.374;-0.176;2023-10-19T09:28:02;98158.52;;;14.98;70.15
82668;BME280;72691;51.374;-0.176;2023-10-19T09:30:29;98154.28;;;15.70;68.87
82668;BME280;72691;51.374;-0.176;2023-10-19T09:32:53;98156.93;;;14.98;69.96
82668;BME280;72691;51.374;-0.176;2023-10-19T09:35:19;98158.27;;;14.87;70.38
82668;BME280;72691;51.374;-0.176;2023-10-19T09:37:44;98145.24;;;15.66;69.31
82668;BME280;72691;51.374;-0.176;2023-10-19T09:40:09;98146.21;;;15.30;69.72
82668;BME280;72691;51.374;-0.176;2023-10-19T09:42:37;98146.30;;;15.95;68.62
82668;BME280;72691;51.374;-0.176;2023-10-19T09:45:01;98143.84;;;15.36;70.00
82668;BME280;72691;51.374;-0.176;2023-10-19T09:47:29;98146.37;;;15.73;69.46
82668;BME280;72691;51.374;-0.176;2023-10-19T09:49:50;98148.20;;;15.96;67.40
82668;BME280;72691;51.374;-0.176;2023-10-19T09:52:16;98152.86;;;15.84;68.98
82668;BME280;72691;51.374;-0.176;2023-10-19T09:54:50;98154.33;;;15.14;70.57
82668;BME280;72691;51.374;-0.176;2023-10-19T09:57:13;98151.97;;;14.61;71.62
82668;BME280;72691;51.374;-0.176;2023-10-19T09:59:34;98140.49;;;15.38;67.76
82668;BME280;72691;51.374;-0.176;2023-10-19T10:02:04;98142.22;;;15.18;68.89
82668;BME280;72691;51.374;-0.176;2023-10-19T10:04:32;98141.40;;;15.80;67.66
82668;BME280;72691;51.374;-0.176;2023-10-19T10:06:57;98142.42;;;16.19;66.37
82668;BME280;72691;51.374;-0.176;2023-10-19T10:09:18;98147.61;;;15.80;66.92
82668;BME280;72691;51.374;-0.176;2023-10-19T10:11:41;98149.01;;;15.57;67.01
82668;BME280;72691;51.374;-0.176;2023-10-19T10:16:29;98142.48;;;16.47;65.38
82668;BME280;72691;51.374;-0.176;2023-10-19T10:18:56;98146.82;;;16.66;65.84
82668;BME280;72691;51.374;-0.176;2023-10-19T10:21:21;98143.60;;;17.13;64.58
82668;BME280;72691;51.374;-0.176;2023-10-19T10:23:47;98143.27;;;17.16;62.97
82668;BME280;72691;51.374;-0.176;2023-10-19T10:26:12;98141.66;;;17.97;61.00
82668;BME280;72691;51.374;-0.176;2023-10-19T10:28:35;98149.88;;;16.99;64.47
82668;BME280;72691;51.374;-0.176;2023-10-19T10:31:09;98146.23;;;17.19;63.96
82668;BME280;72691;51.374;-0.176;2023-10-19T10:33:37;98147.78;;;16.87;64.64
82668;BME280;72691;51.374;-0.176;2023-10-19T10:35:54;98154.17;;;17.42;64.44
82668;BME280;72691;51.374;-0.176;2023-10-19T10:38:17;98154.09;;;16.65;65.61
82668;BME280;72691;51.374;-0.176;2023-10-19T10:40:42;98149.45;;;17.39;63.98
82668;BME280;72691;51.374;-0.176;2023-10-19T10:43:08;98154.07;;;17.43;63.06
82668;BME280;72691;51.374;-0.176;2023-10-19T10:45:33;98162.57;;;17.33;62.56
82668;BME280;72691;51.374;-0.176;2023-10-19T10:47:58;98159.46;;;17.72;61.71
82668;BME280;72691;51.374;-0.176;2023-10-19T10:50:23;98156.50;;;18.47;60.43
82668;BME280;72691;51.374;-0.176;2023-10-19T10:52:48;98146.00;;;18.84;58.98
82668;BME280;72691;51.374;-0.176;2023-10-19T10:55:14;98150.65;;;17.45;60.84
82668;BME280;72691;51.374;-0.176;2023-10-19T10:57:40;98150.48;;;16.65;61.80
82668;BME280;72691;51.374;-0.176;2023-10-19T11:00:06;98148.27;;;16.90;62.24
82668;BME280;72691;51.374;-0.176;2023-10-19T11:02:30;98146.82;;;16.40;63.23
82668;BME280;72691;51.374;-0.176;2023-10-19T11:04:55;98148.05;;;16.43;64.82
82668;BME280;72691;51.374;-0.176;2023-10-19T11:07:21;98151.98;;;16.07;66.42
82668;BME280;72691;51.374;-0.176;2023-10-19T11:09:47;98144.89;;;16.11;66.75
82668;BME280;72691;51.374;-0.176;2023-10-19T11:12:12;98142.62;;;15.67;67.79
82668;BME280;72691;51.374;-0.176;2023-10-19T11:14:37;98139.53;;;16.28;66.05
82668;BME280;72691;51.374;-0.176;2023-10-19T11:17:11;98135.99;;;17.06;63.06
82668;BME280;72691;51.374;-0.176;2023-10-19T11:19:37;98131.28;;;17.00;63.16
82668;BME280;72691;51.374;-0.176;2023-10-19T11:21:54;98133.80;;;16.97;63.39
82668;BME280;72691;51.374;-0.176;2023-10-19T11:24:24;98129.73;;;17.41;61.51
82668;BME280;72691;51.374;-0.176;2023-10-19T11:26:43;98125.97;;;18.05;60.72
82668;BME280;72691;51.374;-0.176;2023-10-19T11:29:09;98122.88;;;18.04;59.46
82668;BME280;72691;51.374;-0.176;2023-10-19T11:31:34;98119.85;;;18.03;58.83
82668;BME280;72691;51.374;-0.176;2023-10-19T11:33:59;98119.29;;;17.95;58.77
82668;BME280;72691;51.374;-0.176;2023-10-19T11:36:24;98115.26;;;17.95;59.66
82668;BME280;72691;51.374;-0.176;2023-10-19T11:38:50;98104.82;;;18.13;60.40
82668;BME280;72691;51.374;-0.176;2023-10-19T11:41:16;98100.10;;;18.07;59.63
82668;BME280;72691;51.374;-0.176;2023-10-19T11:43:41;98093.73;;;18.79;57.31
82668;BME280;72691;51.374;-0.176;2023-10-19T11:46:06;98092.25;;;18.66;57.37
82668;BME280;72691;51.374;-0.176;2023-10-19T11:48:32;98089.35;;;19.14;56.49
82668;BME280;72691;51.374;-0.176;2023-10-19T11:50:56;98097.21;;;17.83;58.58
82668;BME280;72691;51.374;-0.176;2023-10-19T11:53:22;98092.88;;;16.94;61.59
82668;BME280;72691;51.374;-0.176;2023-10-19T11:55:47;98094.68;;;17.59;60.42
82668;BME280;72691;51.374;-0.176;2023-10-19T11:58:12;98095.67;;;17.49;60.57
82668;BME280;72691;51.374;-0.176;2023-10-19T12:00:37;98089.02;;;16.67;62.58
82668;BME280;72691;51.374;-0.176;2023-10-19T12:03:02;98086.10;;;17.14;62.46
82668;BME280;72691;51.374;-0.176;2023-10-19T12:05:28;98089.66;;;17.66;60.34
82668;BME280;72691;51.374;-0.176;2023-10-19T12:07:53;98092.04;;;17.35;60.55
82668;BME280;72691;51.374;-0.176;2023-10-19T12:10:19;98088.85;;;17.69;60.17
82668;BME280;72691;51.374;-0.176;2023-10-19T12:12:44;98081.10;;;18.64;58.58
82668;BME280;72691;51.374;-0.176;2023-10-19T12:15:09;98080.70;;;16.94;61.26
82668;BME280;72691;51.374;-0.176;2023-10-19T12:17:35;98081.98;;;16.99;62.17
82668;BME280;72691;51.374;-0.176;2023-10-19T12:20:00;98083.03;;;17.16;63.37
82668;BME280;72691;51.374;-0.176;2023-10-19T12:22:26;98079.10;;;16.95;63.12
82668;BME280;72691;51.374;-0.176;2023-10-19T12:24:51;98082.62;;;17.29;63.08
82668;BME280;72691;51.374;-0.176;2023-10-19T12:27:17;98078.61;;;16.44;63.76
82668;BME280;72691;51.374;-0.176;2023-10-19T12:29:42;98077.98;;;16.86;64.21
82668;BME280;72691;51.374;-0.176;2023-10-19T12:32:09;98077.34;;;16.52;65.13
82668;BME280;72691;51.374;-0.176;2023-10-19T12:34:34;98081.97;;;16.91;63.02
82668;BME280;72691;51.374;-0.176;2023-10-19T12:36:58;98083.19;;;16.26;65.98
82668;BME280;72691;51.374;-0.176;2023-10-19T12:39:23;98082.68;;;16.39;65.77
82668;BME280;72691;51.374;-0.176;2023-10-19T12:41:48;98081.56;;;15.76;65.89